Salisbury Ocean City Wicomico Regional Airport
KSBY : now visible

Airfield :











YOU CAN JOIN US ON...

 
LOGIN :

Register | Disclaimer

   EN    FR    IT 

 









Legend :    VFR   Marginal VFR   IFR   Intensive IFR   Very Intensive IFR
Visi :
Ceiling :
>= 8 km
>= 3000ft
5 to 8 km
1000 to 3000 ft
1500m to 5 km
500 to 1000 ft
800 to 1500m
200 to 500 ft
< 800m
< 200 ft
Symbols :   Thunderstorms  Fog  Heavy snow  Heavy precipitations  Wind > 20 kt






- Airport Elevation : 52 ft
- IATA code : SBY


KSBY - Salisbury Ocean City Wicomico Regional

CURRENT METAR :
  • 251002Z AUTO 13009KT 2 1/2SM -RA BR OVC007 12/11 A2990 RMK AO2 P0000 T01170106

EXPIRED METARs :
  • 250954Z AUTO 13011KT 3SM -RA BR BKN007 OVC028 12/10 A2990 RMK AO2 RAE12B24 SLP126 P0000 T01170100
  • 250932Z AUTO 13009KT 2 1/2SM +RA BR BKN008 BKN023 OVC040 12/10 A2991 RMK AO2 RAE12B24 P0000 T01170100
  • 250923Z AUTO 11010KT 9SM SCT010 BKN030 OVC050 12/10 A2990 RMK AO2 RAE12 P0000 T01170100
  • 250900Z AUTO 11011KT 9SM -RA SCT008 BKN020 OVC039 12/10 A2992 RMK AO2 P0000 T01170100
  • 250854Z AUTO 11013KT 6SM -RA BR BKN008 BKN020 OVC044 12/10 A2992 RMK AO2 RAB21 SLP135 P0000 60000 T01170100 58025
  • 250817Z AUTO 11013KT 8SM BKN009 OVC012 12/09 A2995 RMK AO2 T01170094
  • 250801Z AUTO 11012G20KT 10SM BKN011 BKN019 OVC032 12/09 A2996 RMK AO2 T01170094

TAF KSBY
Valid from the 25 at 08:00 until the 26 at 06:00 UTC


250818Z 2508/2606 11012G20KT P6SM VCSH BKN011 BKN019 OVC030
FM250900 12015G22KT 6SM -SHRA OVC010
FM251400 16012G19KT 2SM SHRA OVC010
FM251700 21009KT P6SM SHRA BKN020
FM260000 29008KT 6SM BR BKN050



MET'MAP, your aeronautical weather chart ! - Copyright ORBIFLY December 2007 - Disclaimer

ORBIFLY MET'MAP TEAM :

Programming & Development : Alexandra Zaïnal
Concept & original design : Baudouin d'Aumeries
Assistance for programming : Marc-Olivier Méhu
Technical & hardware support : Manuel Goepfert

Contact : metmap@orbifly.com




SOURCES & CREDITS :

   NOAA       Earth
Advisory